createdAt,value
2023-03-29T00:07:46.158Z,3.58
2023-03-29T00:27:48.690Z,3.67
2023-03-29T00:37:50.527Z,3.35
2023-03-29T00:47:49.536Z,3.26
2023-03-29T00:57:58.597Z,2.76
2023-03-29T01:08:07.517Z,3.32
2023-03-29T01:18:16.488Z,3.78
2023-03-29T01:28:25.985Z,4.13
2023-03-29T01:38:35.412Z,3.76
2023-03-29T01:48:48.252Z,3.72
2023-03-29T01:58:51.920Z,4.08
2023-03-29T02:08:51.372Z,4.18
2023-03-29T02:19:01.074Z,4.27
2023-03-29T02:29:11.230Z,4.47
2023-03-29T02:39:10.768Z,4.8
2023-03-29T02:49:23.539Z,4.89
2023-03-29T02:59:23.052Z,4.96
2023-03-29T03:09:31.905Z,4.49
2023-03-29T03:19:40.822Z,5.09
2023-03-29T03:29:49.570Z,11.56
2023-03-29T03:39:58.395Z,17.71
2023-03-29T03:50:07.240Z,21.17
2023-03-29T04:00:16.092Z,17.8
2023-03-29T04:10:24.839Z,10.23
2023-03-29T04:20:33.623Z,7.46
2023-03-29T04:30:42.553Z,8.26
2023-03-29T04:40:58.440Z,7.39
2023-03-29T04:50:57.741Z,6.63
2023-03-29T05:01:07.329Z,9.22
2023-03-29T05:11:16.264Z,13.31
2023-03-29T05:21:25.526Z,15.65
2023-03-29T05:31:34.280Z,11.63
2023-03-29T05:41:43.543Z,14.33
2023-03-29T05:51:58.403Z,16.32
2023-03-29T06:01:57.613Z,12.9
2023-03-29T06:12:08.941Z,14.25
2023-03-29T06:22:15.265Z,25.65
2023-03-29T06:32:16.812Z,19.01
2023-03-29T06:42:21.426Z,15.84
2023-03-29T07:02:22.401Z,18.32
2023-03-29T07:12:25.288Z,26.78
2023-03-29T07:22:26.738Z,22.2
2023-03-29T07:32:25.755Z,18.97
2023-03-29T07:42:34.711Z,11.02
2023-03-29T07:52:43.989Z,6.95
2023-03-29T08:02:54.648Z,5.88
2023-03-29T08:12:54.773Z,9.04
2023-03-29T08:22:53.766Z,5.92
2023-03-29T08:33:02.821Z,4.86
2023-03-29T08:43:11.748Z,5.64
2023-03-29T08:53:21.660Z,8.61
2023-03-29T09:03:32.045Z,5.2
2023-03-29T09:13:31.036Z,4.57
2023-03-29T09:23:40.200Z,5.37
2023-03-29T09:33:53.617Z,1.9
2023-03-29T09:43:55.305Z,1.5
2023-03-29T09:53:54.472Z,1.74
2023-03-29T10:04:05.032Z,1.39
2023-03-29T10:14:09.411Z,1.61
2023-03-29T10:24:13.024Z,1.82
2023-03-29T10:34:11.603Z,1.97
2023-03-29T10:44:21.316Z,1.81
2023-03-29T10:54:32.625Z,1.83
2023-03-29T11:04:31.801Z,1.76
2023-03-29T11:14:41.991Z,1.97
2023-03-29T11:24:40.950Z,2.31
2023-03-29T11:34:50.083Z,2.38
2023-03-29T11:44:59.816Z,2.32
2023-03-29T11:55:09.963Z,2.25
2023-03-29T12:05:15.298Z,2.26
2023-03-29T12:15:14.568Z,2.25
2023-03-29T12:25:23.298Z,2.95
2023-03-29T12:35:32.660Z,2.36
2023-03-29T12:45:43.816Z,2.07
2023-03-29T12:55:45.118Z,2.13
2023-03-29T13:05:49.226Z,2.61
2023-03-29T13:15:49.018Z,2.88
2023-03-29T13:25:58.400Z,2.62
2023-03-29T13:36:08.675Z,2.1
2023-03-29T13:46:07.698Z,2.26
2023-03-29T13:56:16.622Z,2.34
2023-03-29T14:06:29.802Z,1.93
2023-03-29T14:16:28.930Z,2.24
2023-03-29T14:26:38.336Z,2.05
2023-03-29T14:36:48.619Z,2.17
2023-03-29T14:46:49.997Z,1.94
2023-03-29T14:56:59.522Z,1.65
2023-03-29T15:07:05.614Z,1.66
2023-03-29T15:17:07.531Z,1.87
2023-03-29T15:27:08.883Z,1.84
2023-03-29T15:37:08.442Z,2.11
2023-03-29T15:47:19.757Z,2.4
2023-03-29T15:57:18.819Z,1.98
2023-03-29T16:07:30.977Z,2.3
2023-03-29T16:17:31.442Z,2.03
2023-03-29T16:27:32.386Z,1.56
2023-03-29T16:37:31.459Z,1.91
2023-03-29T16:47:40.952Z,1.75
2023-03-29T16:57:50.057Z,1.62
2023-03-29T17:08:04.866Z,2.15
2023-03-29T17:18:04.525Z,2.58
2023-03-29T17:28:15.007Z,1.62
2023-03-29T17:38:13.835Z,1.43
2023-03-29T17:48:24.293Z,1.3
2023-03-29T17:58:25.454Z,1.23
2023-03-29T18:08:35.267Z,1.43
2023-03-29T18:18:36.806Z,1.53
2023-03-29T18:28:43.732Z,1.62
2023-03-29T18:38:44.053Z,1.21
2023-03-29T18:48:44.360Z,1.12
2023-03-29T18:58:44.557Z,1.16
2023-03-29T19:08:43.423Z,1.33
2023-03-29T19:18:52.639Z,1.46
2023-03-29T19:29:03.038Z,1.39
2023-03-29T19:39:01.924Z,1.16
2023-03-29T19:49:12.592Z,1.32
2023-03-29T19:59:12.877Z,2.94
2023-03-29T20:09:11.785Z,2.13
2023-03-29T20:19:28.353Z,2.27
2023-03-29T20:30:18.498Z,2.08
2023-03-29T20:59:43.905Z,3.52
2023-03-29T21:09:52.750Z,2.68
2023-03-29T21:20:01.571Z,1.54
2023-03-29T21:30:10.182Z,1.98
2023-03-29T21:40:19.005Z,2.11
2023-03-29T21:50:27.592Z,1.67
2023-03-29T22:00:36.545Z,1.82
2023-03-29T22:10:45.200Z,1.48
2023-03-29T22:20:54.042Z,1.43
2023-03-29T22:31:03.284Z,1.41
2023-03-29T22:41:13.005Z,1.46
2023-03-29T22:51:21.723Z,1.63
2023-03-29T23:01:30.483Z,1.83
2023-03-29T23:11:39.295Z,1.98
2023-03-29T23:21:48.004Z,2.23
2023-03-29T23:31:56.976Z,2.21
2023-03-29T23:42:05.604Z,2.28
2023-03-29T23:52:14.823Z,2.01
